Últimos artigos:
Acender um LED com a tensão da rede eléctrica
Programação do Yaesu FT-60 para os EasySats
AO-91 (RadFxSat Fox-1B) está no Ar!
CT7AFR DIY CW-Keyer
Shutdown button for the Raspberry Pi
Simple C code to dump I2C device memory
Últimas fotos:
Últimos METARs:
LPAZ 222200Z 12012KT 9999 FEW005 BKN014 23...
LPFR 222200Z 01003KT 300V040 CAVOK 26/18 Q...
LPHR 222000Z 25005KT 9999 FEW010 24/21 Q10...
LPLA 222200Z /////KT 9999 BKN006 BKN014 23...
LPMA 222200Z 35008KT 300V030 9999 FEW016 2...
LPPD 222200Z 12012KT 9000 -DZ SCT008 BKN01...
LPPR 222200Z 00000KT CAVOK 19/16 Q1016=
LPPS 222200Z 03007KT 360V060 9999 SCT016 2...
LPPT 222200Z 31011KT CAVOK 27/12 Q1015=
Últimos QSOs:
2019/05/26-18:36 6m UT4XU (NIKOLAY)
2019/05/26-18:27 6m DM2HW (JOHANNES)
2019/05/26-18:22 6m CT3MD (JOSE)
2019/05/26-18:16 6m OK1VRV (RICHTR)
2019/05/26-18:07 6m SP9CVY (JERZY)
2019/05/26-18:06 6m SP9TDA (SEBASTIAN)
  UTC
Rpi-6 CPU Temp: 41.7 °C (222231Z)
IN51oq 2230Z /////KT //// 31/16 Q1015=
50142